Main page
METAR-TAF:

METAR-TAF

Airports :

Dakar, Senegal

Léopold Sédar Senghor International Airport

latitude: 14-44N, longitude: 017-30W, elevation: 27 m

Current weather observation

The report was made 29 minutes ago, at 13:30 UTC
Wind 14 kt from the North
Temperature 23°C
Humidity 73%
Pressure 1013 hPa
Visibility 10 km or more
no clouds below 1500 m and no cumulonimbus

METAR: GOOY 241330Z 01014KT CAVOK 23/18 Q1013 NOSIG

Time: 13:59 (13:59 UTC)

Forecast

The report was made 2 hours and 29 minutes ago, at 11:30 UTC
Forecast valid from 24 at 12 UTC to 25 at 18 UTC
Wind 14 kt from the North
Visibility 10 km or more
no clouds below 1500 m and no cumulonimbus

TAF: GOOY 241130Z 2412/2518 35014KT CAVOK

Weather observations and forecasts of more than 4000 airports (METAR and TAF reports).

The available stations are represented by yellow and red dots on the map.

Hover mouse over dot to see the name of the station.

Then click to see weather observations and forecasts.

To change the map : click on the green buttons with a black cross to zoom in, on the green button with a dash to zoom out, or on the green arrows for adjacent maps.


METAR-TAF: